Time;durP1;ratioP1;P1;durP2;ratioP2;P2;SDS_P1;SDS_P2;PMS_P1;PMS_P2;Temp;Humidity;BMP_temperature;BMP_pressure;BME280_temperature;BME280_humidity;BME280_pressure;Samples;Min_cycle;Max_cycle;Signal;HPM_P1;HPM_P2
2022/01/26 00:07:00;;;;;;;48.30;21.52;;;;;;;4.28;84.13;102768.31;5071918;28;20622;-84
2022/01/26 00:09:44;;;;;;;37.80;18.58;;;;;;;4.30;83.84;102766.13;5073063;28;20047;-78
2022/01/26 00:12:21;;;;;;;51.03;25.02;;;;;;;4.31;84.10;102756.78;5043419;28;20049;-79
2022/01/26 00:14:58;;;;;;;31.00;16.10;;;;;;;4.29;84.13;102745.25;5071277;28;20041;-78
2022/01/26 00:17:36;;;;;;;55.17;25.83;;;;;;;4.26;84.13;102754.00;5060046;28;20039;-78
2022/01/26 00:25:39;;;;;;;36.25;17.60;;;;;;;4.25;84.18;102757.84;5059422;28;20044;-78
2022/01/26 00:28:30;;;;;;;39.88;19.55;;;;;;;4.26;84.44;102743.03;5041968;28;20092;-79
2022/01/26 00:39:33;;;;;;;30.92;13.98;;;;;;;4.39;85.14;102757.44;5059320;28;20046;-78
2022/01/26 00:42:20;;;;;;;39.65;15.82;;;;;;;4.40;84.79;102754.44;5022616;28;20041;-77
2022/01/26 00:44:57;;;;;;;34.67;15.20;;;;;;;4.43;84.75;102773.13;5040601;28;20059;-79
2022/01/26 00:47:41;;;;;;;26.08;12.73;;;;;;;4.44;85.07;102768.50;5047403;28;20033;-78
2022/01/26 00:50:18;;;;;;;27.13;12.48;;;;;;;4.44;85.10;102768.50;5040999;28;20135;-78
2022/01/26 00:52:56;;;;;;;24.38;12.75;;;;;;;4.47;85.04;102773.47;5040264;28;20094;-78
2022/01/26 00:55:37;;;;;;;23.23;12.75;;;;;;;4.48;85.22;102769.63;5059126;28;20127;-78
2022/01/26 00:58:11;;;;;;;27.52;12.05;;;;;;;4.51;85.37;102763.63;5046211;28;20400;-78
2022/01/26 01:01:05;;;;;;;27.58;13.75;;;;;;;4.53;85.18;102764.19;5057684;28;20133;-78
2022/01/26 01:03:57;;;;;;;27.13;14.52;;;;;;;4.55;85.38;102759.31;5038158;28;20051;-78
2022/01/26 01:06:39;;;;;;;27.83;13.65;;;;;;;4.54;85.34;102754.91;5058015;28;20040;-78
2022/01/26 01:09:51;;;;;;;31.13;15.65;;;;;;;4.52;85.06;102741.44;4956940;28;20055;-78
2022/01/26 01:12:43;;;;;;;33.53;18.50;;;;;;;4.51;84.98;102739.78;4955678;28;20059;-78
2022/01/26 01:15:26;;;;;;;;;;;;;;;;;;;;;
2022/01/26 01:18:08;;;;;;;28.45;14.75;;;;;;;4.49;85.17;102727.41;4956679;28;20153;-78
2022/01/26 01:21:08;;;;;;;31.63;14.55;;;;;;;4.49;85.02;102746.59;4939405;28;20061;-79
2022/01/26 01:36:05;;;;;;;;;;;;;;;;;;;;;
2022/01/26 01:48:36;;;;;;;;;;;;;;;;;;;;;
2022/01/26 01:56:12;;;;;;;;;;;;;;;;;;;;;
2022/01/26 02:00:10;;;;;;;21.67;11.27;;;;;;;5.06;86.32;102764.25;5078461;28;20059;-78
2022/01/26 02:07:05;;;;;;;22.55;10.48;;;;;;;5.15;86.30;102761.88;5096880;28;20048;-78
2022/01/26 02:10:02;;;;;;;22.20;11.05;;;;;;;5.18;86.34;102759.44;5101564;28;20051;-79
2022/01/26 02:12:47;;;;;;;23.42;10.48;;;;;;;5.20;86.27;102754.50;5101926;28;20044;-78
2022/01/26 02:15:47;;;;;;;20.27;10.30;;;;;;;5.23;86.19;102748.50;5095357;28;20046;-78
2022/01/26 02:19:37;;;;;;;22.83;10.23;;;;;;;5.26;86.38;102736.16;5100271;28;20502;-78
2022/01/26 03:09:41;;;;;;;19.30;9.77;;;;;;;5.51;86.30;102706.16;4997985;28;20490;-78
2022/01/26 03:13:10;;;;;;;20.92;9.50;;;;;;;5.52;86.39;102705.06;4999454;28;20061;-78
2022/01/26 03:16:36;;;;;;;17.40;8.85;;;;;;;5.54;86.60;102700.97;4998399;28;20802;-78
2022/01/26 03:19:34;;;;;;;;;;;;;;;;;;;;;
2022/01/26 03:30:18;;;;;;;;;;;;;;;;;;;;;
2022/01/26 03:36:31;;;;;;;;;;;;;;;;;;;;;
2022/01/26 03:39:40;;;;;;;;;;;;;;;;;;;;;
2022/01/26 03:50:44;;;;;;;21.52;11.65;;;;;;;5.62;86.39;102661.19;4962059;28;20066;-78
2022/01/26 03:53:57;;;;;;;;;;;;;;;;;;;;;
2022/01/26 03:57:35;;;;;;;;;;;;;;;;;;;;;
2022/01/26 04:04:28;;;;;;;;;;;;;;;;;;;;;
2022/01/26 04:07:58;;;;;;;24.65;10.35;;;;;;;5.69;86.41;102669.19;4980426;28;20050;-78
2022/01/26 04:15:09;;;;;;;;;;;;;;;;;;;;;
2022/01/26 04:18:16;;;;;;;;;;;;;;;;;;;;;
2022/01/26 04:21:32;;;;;;;21.35;10.55;;;;;;;5.69;86.48;102630.72;5022486;28;20151;-79
2022/01/26 04:24:58;;;;;;;18.95;10.02;;;;;;;5.69;86.46;102630.72;5004104;28;20041;-78
2022/01/26 04:28:35;;;;;;;17.60;9.48;;;;;;;5.71;86.66;102650.50;4925087;28;20059;-78
2022/01/26 04:32:00;;;;;;;17.50;9.23;;;;;;;5.71;86.44;102639.53;4960643;28;20055;-78
2022/01/26 04:38:41;;;;;;;19.10;10.10;;;;;;;5.72;86.64;102624.69;4956311;28;20403;-78
2022/01/26 04:42:14;;;;;;;;;;;;;;;;;;;;;
2022/01/26 04:45:36;;;;;;;49.03;17.08;;;;;;;5.71;86.69;102623.88;4915260;28;20128;-78
2022/01/26 04:53:01;;;;;;;20.33;10.27;;;;;;;5.71;86.66;102612.03;5016921;28;20057;-78
2022/01/26 04:56:22;;;;;;;23.38;9.85;;;;;;;5.71;86.59;102617.53;5009749;28;20057;-78
2022/01/26 04:59:32;;;;;;;26.73;11.43;;;;;;;5.71;86.72;102603.81;4996702;28;20041;-78
2022/01/26 05:02:34;;;;;;;16.38;8.57;;;;;;;5.71;86.48;102595.56;5014735;28;20527;-78
2022/01/26 05:05:30;;;;;;;16.33;9.90;;;;;;;5.70;86.71;102600.22;5018277;28;20132;-78
2022/01/26 05:09:08;;;;;;;17.10;9.10;;;;;;;5.68;86.31;102594.16;5007844;28;20417;-78
2022/01/26 05:12:44;;;;;;;15.23;8.68;;;;;;;5.66;86.55;102593.63;4918879;29;20570;-78
2022/01/26 05:19:24;;;;;;;19.08;9.32;;;;;;;5.64;86.25;102603.22;4861516;29;20079;-78
2022/01/26 05:25:49;;;;;;;;;;;;;;;;;;;;;
2022/01/26 05:28:46;;;;;;;20.73;9.10;;;;;;;5.54;86.38;102596.56;4858699;29;20712;-78
2022/01/26 05:32:27;;;;;;;;;;;;;;;;;;;;;
2022/01/26 05:42:34;;;;;;;21.40;9.88;;;;;;;5.35;86.25;102616.50;4953338;28;20414;-78
2022/01/26 05:49:09;;;;;;;18.42;9.32;;;;;;;5.30;86.28;102617.28;5008605;28;20113;-78
2022/01/26 05:52:26;;;;;;;23.10;10.82;;;;;;;5.27;86.47;102617.00;5011503;28;20056;-79
2022/01/26 05:55:56;;;;;;;20.65;9.52;;;;;;;5.25;86.27;102614.50;4886226;29;20051;-79
2022/01/26 05:59:45;;;;;;;22.30;9.10;;;;;;;5.22;86.17;102626.03;4892551;29;20452;-80
2022/01/26 06:03:07;;;;;;;;;;;;;;;;;;;;;
2022/01/26 06:06:08;;;;;;;18.73;9.15;;;;;;;5.32;86.53;102622.53;4945421;28;20055;-79
2022/01/26 06:08:35;;;;;;;23.08;9.35;;;;;;;5.34;86.69;102617.59;4955280;28;20082;-79
2022/01/26 06:11:04;;;;;;;13.40;7.82;;;;;;;5.36;86.72;102604.44;4957001;28;20055;-79
2022/01/26 06:13:31;;;;;;;18.60;7.55;;;;;;;5.40;86.77;102609.13;4957352;28;20054;-79
2022/01/26 06:15:58;;;;;;;15.02;7.05;;;;;;;5.44;86.70;102612.16;4962568;28;20054;-79
2022/01/26 06:18:25;;;;;;;17.48;8.25;;;;;;;5.45;86.78;102600.91;4957753;28;20069;-79
2022/01/26 06:20:55;;;;;;;17.13;8.55;;;;;;;5.48;86.41;102597.63;5109243;28;20039;-79
2022/01/26 06:23:26;;;;;;;16.15;8.32;;;;;;;5.50;86.96;102578.97;5096935;28;20523;-79
2022/01/26 06:25:55;;;;;;;16.13;8.02;;;;;;;5.48;86.54;102561.91;5110180;28;20039;-79
2022/01/26 06:28:24;;;;;;;19.52;7.55;;;;;;;5.45;86.58;102565.19;5083671;28;20511;-79
2022/01/26 06:30:56;;;;;;;17.02;7.85;;;;;;;5.42;86.78;102568.50;5109486;28;20108;-79
2022/01/26 06:33:27;;;;;;;16.23;7.85;;;;;;;5.38;86.47;102567.34;5117361;28;20047;-78
2022/01/26 06:35:56;;;;;;;20.17;8.23;;;;;;;5.35;86.39;102559.66;5118345;28;20122;-79
2022/01/26 06:38:28;;;;;;;22.08;7.57;;;;;;;5.32;86.37;102554.69;5095415;28;20502;-79
2022/01/26 06:40:58;;;;;;;18.88;8.10;;;;;;;5.28;86.68;102545.34;5098598;27;20070;-79
2022/01/26 06:43:29;;;;;;;17.58;8.18;;;;;;;5.25;86.07;102554.09;5103322;27;20039;-79
2022/01/26 06:46:02;;;;;;;18.20;8.63;;;;;;;5.21;86.28;102544.75;5121868;27;20050;-79
2022/01/26 06:51:15;;;;;;;16.52;8.30;;;;;;;5.12;86.00;102543.59;5120003;27;20044;-79
2022/01/26 06:53:42;;;;;;;18.13;7.50;;;;;;;5.09;86.04;102543.28;5102710;27;20058;-79
2022/01/26 06:56:11;;;;;;;15.50;7.43;;;;;;;5.04;86.07;102540.50;5106252;28;20434;-79
2022/01/26 06:58:38;;;;;;;12.60;6.30;;;;;;;5.01;85.99;102535.53;5100621;28;20038;-79
2022/01/26 07:01:05;;;;;;;15.05;6.95;;;;;;;4.98;86.02;102545.13;5112932;27;20067;-79
2022/01/26 07:03:33;;;;;;;13.63;6.90;;;;;;;4.98;86.26;102547.88;5103208;27;20183;-79
2022/01/26 07:06:00;;;;;;;10.38;5.47;;;;;;;4.97;85.96;102540.75;5097846;27;20051;-79
2022/01/26 07:08:28;;;;;;;13.23;5.30;;;;;;;4.97;85.94;102543.50;5096277;28;20040;-79
2022/01/26 07:11:00;;;;;;;9.65;4.57;;;;;;;4.98;86.36;102553.38;5120852;27;20094;-79
2022/01/26 07:13:27;;;;;;;11.40;5.60;;;;;;;4.98;86.27;102545.13;5116126;27;20031;-79
2022/01/26 07:21:32;;;;;;;9.73;4.75;;;;;;;5.06;85.93;102563.84;5114210;27;20038;-79
2022/01/26 07:24:01;;;;;;;12.30;4.82;;;;;;;5.09;85.76;102560.59;5112616;27;20040;-79
2022/01/26 07:26:30;;;;;;;8.30;4.70;;;;;;;5.13;85.89;102555.41;5097771;27;20039;-79
2022/01/26 07:28:59;;;;;;;8.77;5.72;;;;;;;5.16;85.37;102552.97;5101969;27;20031;-79
2022/01/26 07:31:27;;;;;;;7.65;4.00;;;;;;;5.18;85.63;102539.78;5107956;27;20048;-79
2022/01/26 07:33:56;;;;;;;8.05;5.00;;;;;;;5.20;85.40;102534.84;5109127;27;20043;-79
2022/01/26 07:36:24;;;;;;;7.82;4.70;;;;;;;5.21;85.38;102531.03;5101505;27;20118;-79
2022/01/26 07:38:54;;;;;;;9.88;5.03;;;;;;;5.22;85.49;102527.16;5121310;27;20044;-79
2022/01/26 07:41:24;;;;;;;7.82;5.32;;;;;;;5.23;85.02;102534.31;5100073;27;20055;-79
2022/01/26 07:43:51;;;;;;;10.82;5.88;;;;;;;5.25;85.09;102534.88;5091880;27;20039;-79
2022/01/26 07:46:18;;;;;;;12.73;5.15;;;;;;;5.26;84.93;102558.50;5097939;28;20101;-79
2022/01/26 07:48:47;;;;;;;13.02;5.72;;;;;;;5.26;84.82;102558.50;5069902;28;20093;-79
2022/01/26 07:51:14;;;;;;;12.68;5.32;;;;;;;5.30;84.74;102553.28;5084563;28;20039;-79
2022/01/26 07:53:41;;;;;;;15.80;6.68;;;;;;;5.31;84.72;102552.22;5106153;27;20036;-79
2022/01/26 07:56:08;;;;;;;17.88;6.43;;;;;;;5.32;85.01;102543.69;5078283;28;20083;-79
2022/01/26 07:58:51;;;;;;;12.93;5.03;;;;;;;5.35;84.68;102550.56;5110907;27;20039;-79
2022/01/26 08:01:18;;;;;;;13.13;6.35;;;;;;;5.35;84.53;102548.66;5120385;27;20459;-79
2022/01/26 08:03:48;;;;;;;13.82;7.03;;;;;;;5.33;84.57;102548.09;5111084;27;20115;-79
2022/01/26 08:06:18;;;;;;;15.50;6.13;;;;;;;5.32;84.31;102549.19;5101869;27;20047;-79
2022/01/26 08:08:45;;;;;;;16.33;6.90;;;;;;;5.31;84.14;102553.06;5101446;27;21814;-79
2022/01/26 08:11:12;;;;;;;10.32;5.97;;;;;;;5.29;84.21;102548.91;5113016;27;20058;-79
2022/01/26 08:13:41;;;;;;;13.85;6.80;;;;;;;5.30;84.27;102551.38;5102701;27;20039;-79
2022/01/26 08:16:08;;;;;;;15.18;6.05;;;;;;;5.31;84.16;102542.06;5096296;28;20036;-79
2022/01/26 08:18:35;;;;;;;11.75;6.05;;;;;;;5.34;84.12;102543.44;5097756;28;20044;-79
2022/01/26 08:21:06;;;;;;;11.13;6.10;;;;;;;5.35;84.27;102542.34;5101003;28;20092;-79
2022/01/26 08:23:35;;;;;;;17.98;6.47;;;;;;;5.35;84.07;102539.59;5102226;27;20526;-79
2022/01/26 08:26:03;;;;;;;13.48;6.18;;;;;;;5.35;83.90;102548.66;5111910;27;20482;-79
2022/01/26 08:28:40;;;;;;;14.35;6.43;;;;;;;5.35;83.99;102542.34;5101370;27;20039;-79
2022/01/26 08:31:07;;;;;;;14.57;6.90;;;;;;;5.36;83.81;102533.03;5083893;28;20044;-78
2022/01/26 08:33:35;;;;;;;11.73;5.32;;;;;;;5.36;83.74;102539.34;5100905;27;20039;-79
2022/01/26 08:36:02;;;;;;;10.27;5.97;;;;;;;5.36;83.92;102544.84;5095946;27;20043;-79
2022/01/26 08:38:29;;;;;;;12.00;6.05;;;;;;;5.36;83.76;102544.84;5089680;27;20087;-79
2022/01/26 08:40:56;;;;;;;11.50;5.43;;;;;;;5.36;83.61;102544.00;5112356;27;20089;-79
2022/01/26 08:43:23;;;;;;;14.57;7.43;;;;;;;5.37;83.76;102542.91;5077880;28;20162;-79
2022/01/26 08:45:50;;;;;;;13.25;5.65;;;;;;;5.38;83.43;102550.03;5096428;27;20040;-79
2022/01/26 08:48:17;;;;;;;13.27;5.68;;;;;;;5.38;83.63;102548.13;5096928;27;20634;-80
2022/01/26 08:50:44;;;;;;;11.68;6.55;;;;;;;5.36;83.68;102544.00;5117817;27;20039;-78
2022/01/26 08:53:11;;;;;;;15.32;6.60;;;;;;;5.36;83.51;102539.34;5100119;27;20040;-78
2022/01/26 08:55:39;;;;;;;12.60;6.35;;;;;;;5.37;83.37;102549.25;5111487;27;20101;-78
2022/01/26 08:58:06;;;;;;;15.05;5.38;;;;;;;5.38;83.51;102547.31;5092624;28;20059;-78
2022/01/26 09:00:45;;;;;;;17.38;6.63;;;;;;;5.40;83.50;102534.16;5085848;28;20553;-82
2022/01/26 09:03:15;;;;;;;15.02;5.60;;;;;;;5.42;83.51;102527.28;5098167;28;20928;-78
2022/01/26 09:05:42;;;;;;;13.43;5.65;;;;;;;5.46;83.43;102533.91;5099639;28;20043;-78
2022/01/26 09:08:09;;;;;;;9.57;6.13;;;;;;;5.48;83.58;102533.66;5098789;28;20089;-78
2022/01/26 09:10:39;;;;;;;12.77;4.93;;;;;;;5.49;83.31;102530.63;5098353;28;20036;-78
2022/01/26 09:13:06;;;;;;;15.32;6.78;;;;;;;5.53;83.51;102530.91;5076142;28;20050;-78
2022/01/26 09:15:33;;;;;;;14.05;5.85;;;;;;;5.59;83.38;102531.78;5097517;28;20079;-78
2022/01/26 09:18:05;;;;;;;15.30;6.38;;;;;;;5.61;83.23;102532.31;5096615;28;20044;-79
2022/01/26 09:20:38;;;;;;;12.98;6.45;;;;;;;5.62;83.09;102533.94;5101910;28;20040;-80
2022/01/26 09:23:05;;;;;;;14.55;7.78;;;;;;;5.64;83.57;102540.03;5099283;28;20036;-80
2022/01/26 09:25:35;;;;;;;15.82;5.85;;;;;;;5.66;83.27;102535.91;5119064;27;20054;-80
2022/01/26 09:28:03;;;;;;;10.40;5.35;;;;;;;5.69;83.19;102531.81;5096897;28;20544;-80
2022/01/26 09:30:30;;;;;;;13.15;5.78;;;;;;;5.75;83.15;102530.69;5095327;28;20634;-80
2022/01/26 09:32:57;;;;;;;10.02;6.20;;;;;;;5.78;83.18;102543.91;5116762;27;20073;-80
2022/01/26 09:35:25;;;;;;;13.15;5.72;;;;;;;5.80;83.14;102533.50;5095318;28;20527;-80
2022/01/26 09:37:52;;;;;;;11.43;5.93;;;;;;;5.85;83.00;102522.56;5093912;28;20123;-80
2022/01/26 09:40:19;;;;;;;12.05;6.90;;;;;;;5.88;82.98;102519.22;5098740;28;20039;-80
2022/01/26 09:42:46;;;;;;;13.60;6.20;;;;;;;5.91;82.82;102515.94;5085372;28;20178;-80
2022/01/26 09:45:16;;;;;;;11.07;5.35;;;;;;;5.93;82.62;102503.59;5096336;28;20074;-80
2022/01/26 09:47:48;;;;;;;12.20;5.18;;;;;;;5.99;82.79;102519.00;5097416;28;20134;-80
2022/01/26 09:50:36;;;;;;;11.13;5.75;;;;;;;6.03;82.80;102522.03;5096423;28;20039;-80
2022/01/26 09:53:03;;;;;;;13.10;6.35;;;;;;;6.08;82.44;102516.56;5097474;28;20047;-80
2022/01/26 09:55:30;;;;;;;15.48;6.22;;;;;;;6.11;82.67;102519.59;5096288;28;20071;-80
2022/01/26 09:57:58;;;;;;;10.85;5.20;;;;;;;6.14;82.43;102501.72;5080040;28;20093;-80
2022/01/26 10:00:27;;;;;;;14.55;5.72;;;;;;;6.18;82.34;102507.47;5066836;28;20075;-80
2022/01/26 10:03:03;;;;;;;13.45;4.93;;;;;;;6.21;81.86;102510.53;5082071;28;20113;-79
2022/01/26 10:05:43;;;;;;;10.15;4.68;;;;;;;6.27;81.85;102512.19;5096899;28;20108;-80
2022/01/26 10:08:53;;;;;;;10.65;4.47;;;;;;;6.31;81.89;102507.78;5100397;28;20510;-80
2022/01/26 10:19:08;;;;;;;9.25;3.35;;;;;;;6.49;80.94;102492.66;5099347;28;20036;-80
2022/01/26 10:21:45;;;;;;;;;;;;;;;6.50;80.52;102488.81;5087436;28;20051;-80
2022/01/26 10:24:13;;;;;;;10.65;3.50;;;;;;;6.54;81.10;102474.22;5102490;28;20589;-80
2022/01/26 10:26:40;;;;;;;4.82;2.92;;;;;;;6.58;81.08;102469.81;5101450;28;20036;-79
2022/01/26 10:29:07;;;;;;;9.80;3.80;;;;;;;6.60;80.70;102478.63;5069195;28;20056;-80
2022/01/26 10:31:38;;;;;;;11.40;3.60;;;;;;;6.63;80.79;102474.47;5086779;28;20398;-80
2022/01/26 10:34:14;;;;;;;10.27;2.85;;;;;;;6.65;80.79;102480.53;5102650;28;20098;-80
2022/01/26 10:36:44;;;;;;;6.38;3.22;;;;;;;6.67;80.72;102484.66;5087752;28;20090;-80
2022/01/26 10:39:26;;;;;;;8.07;3.08;;;;;;;6.70;80.56;102475.84;5100715;28;20059;-80
2022/01/26 10:42:38;;;;;;;5.45;2.60;;;;;;;6.72;79.78;102486.59;5082321;28;20135;-81
2022/01/26 10:45:13;;;;;;;8.85;2.83;;;;;;;6.74;80.71;102482.47;5082204;28;20555;-79
2022/01/26 10:47:49;;;;;;;8.05;3.08;;;;;;;6.80;80.29;102487.97;5084882;28;20044;-82
2022/01/26 10:51:08;;;;;;;7.47;2.38;;;;;;;6.82;80.36;102489.34;5102603;27;20495;-82
2022/01/26 10:54:20;;;;;;;10.60;2.65;;;;;;;6.87;80.24;102488.50;5100917;28;20551;-82
2022/01/26 10:56:50;;;;;;;4.72;2.92;;;;;;;6.95;80.31;102490.69;5094602;28;20102;-79
2022/01/26 10:59:18;;;;;;;6.82;2.78;;;;;;;6.98;80.22;102482.69;5081577;28;20046;-79
2022/01/26 11:01:45;;;;;;;5.88;3.13;;;;;;;7.05;79.87;102491.47;5083810;28;20728;-78
2022/01/26 11:04:12;;;;;;;8.07;2.90;;;;;;;7.12;79.26;102491.19;5083789;28;20036;-79
2022/01/26 11:06:42;;;;;;;10.25;3.10;;;;;;;7.18;79.06;102495.56;5084312;28;20032;-79
2022/01/26 11:09:13;;;;;;;8.80;3.05;;;;;;;7.21;79.08;102495.84;5068161;28;20051;-79
2022/01/26 11:11:40;;;;;;;8.60;2.80;;;;;;;7.25;78.78;102496.91;5085049;28;20053;-79
2022/01/26 11:14:22;;;;;;;7.85;2.60;;;;;;;7.31;77.95;102489.47;5084011;28;20081;-79
2022/01/26 11:17:01;;;;;;;6.32;2.08;;;;;;;7.34;76.84;102477.88;5084136;28;20127;-79
2022/01/26 11:19:46;;;;;;;9.20;3.30;;;;;;;7.38;76.98;102487.25;5083595;28;20047;-81
2022/01/26 11:22:27;;;;;;;9.75;3.22;;;;;;;7.41;77.39;102494.97;5064677;28;20507;-82
2022/01/26 11:25:09;;;;;;;12.88;2.35;;;;;;;7.42;76.63;102493.84;5083994;28;20040;-79
2022/01/26 11:27:38;;;;;;;5.53;2.10;;;;;;;7.45;77.08;102485.00;5086936;28;20040;-81
2022/01/26 11:30:25;;;;;;;8.23;2.22;;;;;;;7.46;76.25;102474.81;5086307;28;20058;-80
2022/01/26 11:33:01;;;;;;;8.05;2.70;;;;;;;7.46;76.21;102461.88;5099765;28;20038;-80
2022/01/26 11:35:32;;;;;;;10.93;3.30;;;;;;;7.49;76.66;102472.34;5106010;28;20414;-80
2022/01/26 11:46:29;;;;;;;4.93;3.63;;;;;;;7.55;76.67;102459.31;5103890;28;20044;-79
2022/01/26 11:49:00;;;;;;;5.72;2.88;;;;;;;7.57;76.48;102446.13;5085105;28;20059;-79
2022/01/26 11:51:46;;;;;;;8.02;3.17;;;;;;;7.60;76.31;102440.84;5104901;28;20701;-80
2022/01/26 11:54:41;;;;;;;6.85;2.78;;;;;;;7.63;75.81;102433.94;5085518;28;20039;-77
2022/01/26 11:57:14;;;;;;;5.15;2.65;;;;;;;7.66;75.96;102425.94;5101176;28;20487;-77
2022/01/26 11:59:50;;;;;;;9.70;3.38;;;;;;;7.67;76.08;102422.06;5085311;28;20047;-77
2022/01/26 12:02:39;;;;;;;6.63;2.88;;;;;;;7.72;75.97;102424.78;5095863;28;20047;-77
2022/01/26 12:05:14;;;;;;;8.23;4.05;;;;;;;7.76;75.56;102425.03;5081459;28;20104;-77
2022/01/26 12:07:56;;;;;;;8.45;3.60;;;;;;;7.78;75.18;102404.34;5066652;28;20131;-77
2022/01/26 12:10:28;;;;;;;10.82;3.38;;;;;;;7.80;75.33;102396.63;5100099;28;20052;-77
2022/01/26 12:13:12;;;;;;;6.78;3.05;;;;;;;7.83;74.97;102403.50;5095174;28;20036;-78
2022/01/26 12:15:52;;;;;;;5.10;3.40;;;;;;;7.86;75.00;102400.97;5099626;28;20117;-77
2022/01/26 12:18:34;;;;;;;11.63;3.67;;;;;;;7.89;75.06;102397.63;5082474;28;20104;-78
2022/01/26 12:33:51;;;;;;;7.72;3.47;;;;;;;8.14;73.89;102382.84;5095988;28;20567;-77
2022/01/26 12:37:12;;;;;;;5.57;3.40;;;;;;;8.16;73.67;102374.25;5038696;28;20059;-77
2022/01/26 12:42:57;;;;;;;5.43;2.95;;;;;;;8.21;73.40;102363.16;4992349;28;20065;-77
2022/01/26 12:45:46;;;;;;;8.13;4.75;;;;;;;8.23;73.35;102363.72;4991134;28;20765;-76
2022/01/26 12:48:18;;;;;;;7.28;3.30;;;;;;;8.22;72.76;102359.31;5060105;28;20445;-77
2022/01/26 12:50:48;;;;;;;9.07;3.20;;;;;;;8.27;73.17;102359.28;5097529;28;20036;-79
2022/01/26 12:53:23;;;;;;;6.72;3.55;;;;;;;8.29;72.48;102366.16;5100544;28;20039;-76
2022/01/26 12:55:55;;;;;;;8.38;3.67;;;;;;;8.34;73.01;102354.28;5093774;28;20051;-76
2022/01/26 12:58:24;;;;;;;10.48;3.58;;;;;;;8.36;73.39;102349.28;5096193;28;20445;-76
2022/01/26 13:00:51;;;;;;;9.63;3.53;;;;;;;8.39;73.33;102341.22;5099788;28;20043;-77
2022/01/26 13:03:20;;;;;;;5.80;3.38;;;;;;;8.41;73.15;102343.72;5097253;28;20040;-76
2022/01/26 13:05:47;;;;;;;8.07;3.65;;;;;;;8.43;73.36;102336.78;5062458;28;20040;-76
2022/01/26 13:08:14;;;;;;;8.82;3.53;;;;;;;8.49;73.45;102330.09;5084912;28;20044;-76
2022/01/26 13:10:41;;;;;;;7.75;2.95;;;;;;;8.56;73.12;102318.69;5080386;28;20073;-76
2022/01/26 13:13:10;;;;;;;10.80;3.72;;;;;;;8.60;73.05;102319.75;5081050;28;20051;-76
2022/01/26 13:15:47;;;;;;;6.65;3.63;;;;;;;8.63;72.77;102335.72;5082237;28;20044;-76
2022/01/26 13:18:41;;;;;;;8.90;3.60;;;;;;;8.63;71.79;102324.69;5080861;28;20031;-76
2022/01/26 13:21:59;;;;;;;7.20;3.17;;;;;;;8.62;71.91;102323.06;5101212;28;20477;-76
2022/01/26 13:24:32;;;;;;;11.85;4.35;;;;;;;8.68;71.85;102319.13;5077542;28;20039;-77
2022/01/26 13:27:56;;;;;;;8.13;3.42;;;;;;;8.76;72.14;102307.44;5083220;28;20495;-76
2022/01/26 13:35:30;;;;;;;8.02;3.40;;;;;;;8.91;71.69;102290.66;5099170;28;20044;-76
2022/01/26 13:38:14;;;;;;;11.05;3.40;;;;;;;8.94;72.48;102287.31;5080415;28;20456;-76
2022/01/26 13:44:38;;;;;;;9.38;3.38;;;;;;;9.00;72.21;102271.47;5079238;28;20059;-76
2022/01/26 13:49:34;;;;;;;7.57;4.07;;;;;;;9.01;71.99;102256.53;5079146;28;20078;-76
2022/01/26 13:57:26;;;;;;;8.38;3.97;;;;;;;9.00;72.37;102224.53;5102718;27;20153;-77
2022/01/26 13:59:55;;;;;;;6.82;2.95;;;;;;;9.01;71.83;102220.63;5101065;28;20043;-77
2022/01/26 14:02:25;;;;;;;8.98;3.50;;;;;;;9.05;71.71;102216.16;5083074;28;20039;-77
2022/01/26 14:04:55;;;;;;;12.55;3.42;;;;;;;9.09;72.02;102223.53;5092594;28;20130;-77
2022/01/26 14:07:22;;;;;;;10.68;4.82;;;;;;;9.13;71.95;102223.78;5076949;28;20130;-77
2022/01/26 14:09:50;;;;;;;6.40;2.95;;;;;;;9.18;71.83;102202.41;5102009;28;20479;-77
2022/01/26 14:12:24;;;;;;;4.72;3.58;;;;;;;9.22;72.05;102196.25;5082639;28;20044;-77
2022/01/26 14:14:55;;;;;;;8.52;4.50;;;;;;;9.30;72.05;102190.06;5082806;28;20054;-77
2022/01/26 14:17:57;;;;;;;7.40;3.58;;;;;;;9.38;71.71;102186.59;5101297;28;20048;-77
2022/01/26 14:23:18;;;;;;;6.80;3.75;;;;;;;9.38;71.57;102175.53;5082518;28;20135;-77
2022/01/26 14:25:49;;;;;;;8.18;3.17;;;;;;;9.31;71.47;102169.59;5103206;28;20067;-77
2022/01/26 14:28:22;;;;;;;6.70;3.40;;;;;;;9.26;71.31;102166.91;5085144;28;20055;-76
2022/01/26 14:34:24;;;;;;;9.32;3.53;;;;;;;9.14;71.13;102170.13;5033303;28;20044;-77
2022/01/26 14:37:02;;;;;;;6.10;3.35;;;;;;;9.10;71.31;102169.13;5080086;28;20077;-77
2022/01/26 14:39:53;;;;;;;13.57;3.10;;;;;;;9.07;71.61;102158.66;5102231;28;20035;-77
2022/01/26 14:56:13;;;;;;;13.40;5.25;;;;;;;9.06;71.08;102138.50;5081088;28;20046;-77
2022/01/26 15:22:18;;;;;;;9.60;3.20;;;;;;;9.16;71.77;102079.47;5082711;28;20562;-77
2022/01/26 15:40:23;;;;;;;13.30;3.92;;;;;;;9.15;71.94;102061.28;5102132;28;20039;-77
2022/01/26 15:51:18;;;;;;;14.18;3.45;;;;;;;9.12;72.58;102059.94;5101130;28;20042;-77
2022/01/26 16:07:55;;;;;;;9.77;3.33;;;;;;;9.11;73.56;102033.41;5022984;28;20046;-77
2022/01/26 16:21:19;;;;;;;6.97;2.90;;;;;;;9.15;74.51;102006.84;5102819;28;20066;-77
2022/01/26 16:38:44;;;;;;;;;;;;;;;;;;;;;
2022/01/26 18:50:48;;;;;;;8.93;4.47;;;;;;;8.88;81.57;101923.94;5114968;27;20394;-78
2022/01/26 18:53:22;;;;;;;13.95;6.10;;;;;;;8.90;81.69;101921.66;5110684;27;20046;-78
2022/01/26 19:09:29;;;;;;;11.20;5.13;;;;;;;8.99;82.49;101897.75;4951159;28;20494;-79
2022/01/26 19:51:32;;;;;;;10.52;4.88;;;;;;;9.16;82.79;101884.13;5017386;28;20065;-80
2022/01/26 19:53:59;;;;;;;6.72;3.97;;;;;;;9.19;83.04;101880.75;5084316;28;20048;-80
2022/01/26 19:56:26;;;;;;;7.47;4.60;;;;;;;9.19;83.55;101861.41;5100073;28;20092;-80
2022/01/26 19:58:56;;;;;;;11.10;7.03;;;;;;;9.19;83.37;101866.94;5089500;28;20047;-79
2022/01/26 20:01:28;;;;;;;8.20;4.13;;;;;;;9.20;83.52;101870.53;5072200;28;20046;-80
2022/01/26 20:03:58;;;;;;;7.95;4.50;;;;;;;9.23;83.20;101875.44;5072526;28;20048;-79
2022/01/26 20:06:25;;;;;;;7.65;4.00;;;;;;;9.23;83.38;101888.44;5091730;28;20032;-79
2022/01/26 20:09:12;;;;;;;7.07;3.42;;;;;;;9.23;83.85;101894.78;5059978;28;20075;-79
2022/01/26 20:11:56;;;;;;;8.85;4.15;;;;;;;9.24;83.72;101866.00;5061699;28;20047;-79
2022/01/26 20:14:55;;;;;;;;;;;;;;;;;;;;;
2022/01/26 20:17:54;;;;;;;6.88;3.65;;;;;;;9.23;84.07;101869.09;5092735;28;20132;-80
2022/01/26 20:20:53;;;;;;;9.80;4.28;;;;;;;9.20;84.19;101867.75;5097393;28;21980;-80
2022/01/26 20:23:34;;;;;;;10.75;4.97;;;;;;;9.21;84.58;101872.19;5100058;28;20497;-79
2022/01/26 20:26:06;;;;;;;6.63;4.50;;;;;;;9.24;84.59;101876.25;5079564;28;20043;-80
2022/01/26 20:28:39;;;;;;;8.25;4.72;;;;;;;9.24;84.92;101876.25;5080198;28;21640;-79
2022/01/26 20:34:41;;;;;;;8.52;4.88;;;;;;;9.27;85.45;101867.31;5095270;28;20048;-79
2022/01/26 20:37:08;;;;;;;6.90;3.42;;;;;;;9.29;85.40;101851.28;5050562;28;20051;-79
2022/01/26 20:39:43;;;;;;;7.82;4.13;;;;;;;9.31;85.45;101860.06;5088935;28;20251;-79
2022/01/26 20:42:46;;;;;;;9.85;4.03;;;;;;;9.32;86.04;101850.66;5054606;28;20058;-79
2022/01/26 20:45:31;;;;;;;6.55;4.35;;;;;;;9.33;85.47;101827.41;5055437;28;20032;-79
2022/01/26 20:48:23;;;;;;;7.75;4.05;;;;;;;9.33;85.85;101832.94;5088075;28;20063;-79
2022/01/26 20:54:13;;;;;;;6.45;4.53;;;;;;;9.31;86.39;101837.97;5083815;28;20051;-80
2022/01/26 20:56:48;;;;;;;11.02;6.10;;;;;;;9.31;86.04;101832.44;5097225;28;20035;-80
2022/01/26 21:00:18;;;;;;;25.58;15.45;;;;;;;9.31;87.07;101841.56;5092990;28;20050;-79
2022/01/26 21:03:42;;;;;;;9.00;4.47;;;;;;;9.31;87.40;101830.50;5085792;28;20113;-80
2022/01/26 21:07:36;;;;;;;9.85;4.68;;;;;;;9.34;87.23;101838.16;5082271;28;20040;-79
2022/01/26 21:10:45;;;;;;;7.13;4.60;;;;;;;9.35;87.27;101833.44;5040225;28;20166;-79
2022/01/26 21:18:23;;;;;;;8.88;4.50;;;;;;;9.39;87.83;101835.28;4874945;29;20622;-79
2022/01/26 21:29:37;;;;;;;15.70;8.70;;;;;;;9.41;88.79;101838.56;4840450;29;20140;-82
2022/01/26 21:41:09;;;;;;;8.05;5.00;;;;;;;9.33;90.49;101844.00;4827370;29;20049;-78
2022/01/26 21:54:14;;;;;;;;;;;;;;;;;;;;;
2022/01/26 22:02:00;;;;;;;;;;;;;;;;;;;;;
2022/01/26 22:05:34;;;;;;;;;;;;;;;;;;;;;
